sensor_id;sensor_type;location;lat;lon;timestamp;temperature;humidity
63966;DHT22;50151;52.030;5.350;2023-07-31T09:05:39;17.40;99.90
63966;DHT22;50151;52.030;5.350;2023-07-31T09:08:09;17.40;99.90
63966;DHT22;50151;52.030;5.350;2023-07-31T09:10:44;17.40;99.90
63966;DHT22;50151;52.030;5.350;2023-07-31T09:13:13;17.30;99.90
63966;DHT22;50151;52.030;5.350;2023-07-31T09:15:45;17.40;99.90
63966;DHT22;50151;52.030;5.350;2023-07-31T09:18:12;17.40;99.90
63966;DHT22;50151;52.030;5.350;2023-07-31T09:20:40;17.40;99.90
63966;DHT22;50151;52.030;5.350;2023-07-31T09:23:13;17.50;99.90
63966;DHT22;50151;52.030;5.350;2023-07-31T09:25:43;17.50;99.90
63966;DHT22;50151;52.030;5.350;2023-07-31T09:28:11;17.50;99.90
63966;DHT22;50151;52.030;5.350;2023-07-31T09:31:04;17.50;99.90
63966;DHT22;50151;52.030;5.350;2023-07-31T09:33:31;17.50;99.90
63966;DHT22;50151;52.030;5.350;2023-07-31T09:35:58;17.50;99.90
63966;DHT22;50151;52.030;5.350;2023-07-31T09:38:27;17.60;99.90
63966;DHT22;50151;52.030;5.350;2023-07-31T09:40:53;17.70;99.90
63966;DHT22;50151;52.030;5.350;2023-07-31T09:43:21;17.80;99.90
63966;DHT22;50151;52.030;5.350;2023-07-31T09:45:52;17.80;99.90
63966;DHT22;50151;52.030;5.350;2023-07-31T09:48:20;17.90;99.90
63966;DHT22;50151;52.030;5.350;2023-07-31T09:50:48;17.90;99.90
63966;DHT22;50151;52.030;5.350;2023-07-31T09:53:16;17.90;99.90
63966;DHT22;50151;52.030;5.350;2023-07-31T09:55:43;17.80;99.90
63966;DHT22;50151;52.030;5.350;2023-07-31T09:58:12;17.80;99.90
63966;DHT22;50151;52.030;5.350;2023-07-31T10:00:39;17.80;99.90
63966;DHT22;50151;52.030;5.350;2023-07-31T10:03:08;17.90;99.90
63966;DHT22;50151;52.030;5.350;2023-07-31T10:05:52;17.80;99.90
63966;DHT22;50151;52.030;5.350;2023-07-31T10:08:22;17.80;99.90
63966;DHT22;50151;52.030;5.350;2023-07-31T10:10:50;17.90;99.90
63966;DHT22;50151;52.030;5.350;2023-07-31T10:13:17;17.90;99.90
63966;DHT22;50151;52.030;5.350;2023-07-31T10:15:45;17.90;99.90
63966;DHT22;50151;52.030;5.350;2023-07-31T10:18:12;17.90;99.90
63966;DHT22;50151;52.030;5.350;2023-07-31T10:20:40;18.00;99.90
63966;DHT22;50151;52.030;5.350;2023-07-31T10:23:08;18.00;99.90
63966;DHT22;50151;52.030;5.350;2023-07-31T10:25:35;18.00;99.90
63966;DHT22;50151;52.030;5.350;2023-07-31T10:28:02;18.00;99.90
63966;DHT22;50151;52.030;5.350;2023-07-31T10:30:31;18.00;99.90
63966;DHT22;50151;52.030;5.350;2023-07-31T10:32:59;18.10;99.90
63966;DHT22;50151;52.030;5.350;2023-07-31T10:35:27;18.10;99.90
63966;DHT22;50151;52.030;5.350;2023-07-31T10:37:54;18.20;99.90
63966;DHT22;50151;52.030;5.350;2023-07-31T10:40:25;18.20;99.90
63966;DHT22;50151;52.030;5.350;2023-07-31T10:42:54;18.20;99.90
63966;DHT22;50151;52.030;5.350;2023-07-31T10:45:31;18.20;99.90
63966;DHT22;50151;52.030;5.350;2023-07-31T10:48:01;18.10;99.90
63966;DHT22;50151;52.030;5.350;2023-07-31T10:50:29;18.20;99.90
63966;DHT22;50151;52.030;5.350;2023-07-31T10:52:57;18.20;99.90
63966;DHT22;50151;52.030;5.350;2023-07-31T10:55:31;18.30;99.90
63966;DHT22;50151;52.030;5.350;2023-07-31T10:58:19;18.40;99.90
63966;DHT22;50151;52.030;5.350;2023-07-31T11:00:46;18.40;99.90
63966;DHT22;50151;52.030;5.350;2023-07-31T11:03:15;18.30;99.90
63966;DHT22;50151;52.030;5.350;2023-07-31T11:05:43;18.30;99.90
63966;DHT22;50151;52.030;5.350;2023-07-31T11:08:21;18.30;99.90
63966;DHT22;50151;52.030;5.350;2023-07-31T11:11:05;18.30;99.90
63966;DHT22;50151;52.030;5.350;2023-07-31T11:13:39;18.20;99.90
63966;DHT22;50151;52.030;5.350;2023-07-31T11:16:07;18.10;99.90
63966;DHT22;50151;52.030;5.350;2023-07-31T11:18:34;18.20;99.90
63966;DHT22;50151;52.030;5.350;2023-07-31T11:21:01;18.30;99.90
63966;DHT22;50151;52.030;5.350;2023-07-31T11:23:28;18.30;99.90
63966;DHT22;50151;52.030;5.350;2023-07-31T11:25:59;18.40;99.90
63966;DHT22;50151;52.030;5.350;2023-07-31T11:28:26;18.20;99.90
63966;DHT22;50151;52.030;5.350;2023-07-31T11:30:57;18.30;99.90
63966;DHT22;50151;52.030;5.350;2023-07-31T11:33:24;18.30;99.90
63966;DHT22;50151;52.030;5.350;2023-07-31T11:35:51;18.30;99.90
63966;DHT22;50151;52.030;5.350;2023-07-31T11:40:51;18.30;99.90
63966;DHT22;50151;52.030;5.350;2023-07-31T11:43:18;18.30;99.90
63966;DHT22;50151;52.030;5.350;2023-07-31T11:45:51;18.30;99.90
63966;DHT22;50151;52.030;5.350;2023-07-31T11:48:19;18.30;99.90
63966;DHT22;50151;52.030;5.350;2023-07-31T11:50:47;18.50;99.90
63966;DHT22;50151;52.030;5.350;2023-07-31T11:53:16;18.40;99.90
63966;DHT22;50151;52.030;5.350;2023-07-31T11:55:44;18.60;99.90
63966;DHT22;50151;52.030;5.350;2023-07-31T11:58:11;18.60;99.90
63966;DHT22;50151;52.030;5.350;2023-07-31T12:00:38;18.60;99.90
63966;DHT22;50151;52.030;5.350;2023-07-31T12:03:05;18.60;99.90
63966;DHT22;50151;52.030;5.350;2023-07-31T12:05:31;18.60;99.90
63966;DHT22;50151;52.030;5.350;2023-07-31T12:07:58;18.60;99.90
63966;DHT22;50151;52.030;5.350;2023-07-31T12:10:32;18.50;99.90
63966;DHT22;50151;52.030;5.350;2023-07-31T12:13:00;18.50;99.90
63966;DHT22;50151;52.030;5.350;2023-07-31T12:15:42;18.50;99.90
63966;DHT22;50151;52.030;5.350;2023-07-31T12:18:15;18.50;99.90
63966;DHT22;50151;52.030;5.350;2023-07-31T12:20:44;18.40;99.90
63966;DHT22;50151;52.030;5.350;2023-07-31T12:23:15;18.30;99.90
63966;DHT22;50151;52.030;5.350;2023-07-31T12:25:42;18.30;99.90
63966;DHT22;50151;52.030;5.350;2023-07-31T12:28:09;18.30;99.90
63966;DHT22;50151;52.030;5.350;2023-07-31T12:30:40;18.30;99.90
63966;DHT22;50151;52.030;5.350;2023-07-31T12:33:13;18.40;99.90
63966;DHT22;50151;52.030;5.350;2023-07-31T12:35:43;18.40;99.90
63966;DHT22;50151;52.030;5.350;2023-07-31T12:38:14;18.50;99.90
63966;DHT22;50151;52.030;5.350;2023-07-31T12:40:41;18.50;99.90
63966;DHT22;50151;52.030;5.350;2023-07-31T12:43:08;18.50;99.90
63966;DHT22;50151;52.030;5.350;2023-07-31T12:45:35;18.50;99.90
63966;DHT22;50151;52.030;5.350;2023-07-31T12:48:02;18.60;99.90
63966;DHT22;50151;52.030;5.350;2023-07-31T12:50:29;18.60;99.90
63966;DHT22;50151;52.030;5.350;2023-07-31T12:52:57;18.70;99.90
63966;DHT22;50151;52.030;5.350;2023-07-31T12:55:23;18.70;99.90
63966;DHT22;50151;52.030;5.350;2023-07-31T12:57:51;18.80;99.90
63966;DHT22;50151;52.030;5.350;2023-07-31T13:00:18;18.90;99.90
63966;DHT22;50151;52.030;5.350;2023-07-31T13:02:45;19.00;99.90
63966;DHT22;50151;52.030;5.350;2023-07-31T13:05:12;19.00;99.90
63966;DHT22;50151;52.030;5.350;2023-07-31T13:07:40;19.00;99.90
63966;DHT22;50151;52.030;5.350;2023-07-31T13:10:08;19.00;99.90
63966;DHT22;50151;52.030;5.350;2023-07-31T13:12:34;19.10;99.90
63966;DHT22;50151;52.030;5.350;2023-07-31T13:15:01;19.10;99.90
63966;DHT22;50151;52.030;5.350;2023-07-31T13:17:28;19.20;99.90
63966;DHT22;50151;52.030;5.350;2023-07-31T13:19:55;19.20;99.90
63966;DHT22;50151;52.030;5.350;2023-07-31T13:22:22;19.20;99.90
63966;DHT22;50151;52.030;5.350;2023-07-31T13:24:48;19.20;99.90
63966;DHT22;50151;52.030;5.350;2023-07-31T13:27:15;19.10;99.90
63966;DHT22;50151;52.030;5.350;2023-07-31T13:29:48;19.00;99.90
63966;DHT22;50151;52.030;5.350;2023-07-31T13:32:20;19.00;99.90
63966;DHT22;50151;52.030;5.350;2023-07-31T13:34:48;19.00;99.90
63966;DHT22;50151;52.030;5.350;2023-07-31T13:37:15;19.00;99.90
63966;DHT22;50151;52.030;5.350;2023-07-31T13:39:43;19.00;99.90
63966;DHT22;50151;52.030;5.350;2023-07-31T13:42:10;18.90;99.90
63966;DHT22;50151;52.030;5.350;2023-07-31T13:44:39;19.00;99.90
63966;DHT22;50151;52.030;5.350;2023-07-31T13:47:07;18.90;99.90
63966;DHT22;50151;52.030;5.350;2023-07-31T13:49:34;18.90;99.90
63966;DHT22;50151;52.030;5.350;2023-07-31T13:52:02;18.90;99.90
63966;DHT22;50151;52.030;5.350;2023-07-31T13:54:29;18.90;99.90
63966;DHT22;50151;52.030;5.350;2023-07-31T13:56:57;18.80;99.90
63966;DHT22;50151;52.030;5.350;2023-07-31T13:59:24;18.80;99.90
63966;DHT22;50151;52.030;5.350;2023-07-31T14:01:50;18.80;99.90
63966;DHT22;50151;52.030;5.350;2023-07-31T14:04:17;18.70;99.90
63966;DHT22;50151;52.030;5.350;2023-07-31T14:06:44;18.70;99.90
63966;DHT22;50151;52.030;5.350;2023-07-31T14:09:11;18.60;99.90
63966;DHT22;50151;52.030;5.350;2023-07-31T14:11:38;18.60;99.90
63966;DHT22;50151;52.030;5.350;2023-07-31T14:14:09;18.70;99.90
63966;DHT22;50151;52.030;5.350;2023-07-31T14:16:36;18.60;99.90
63966;DHT22;50151;52.030;5.350;2023-07-31T14:19:03;18.70;99.90
63966;DHT22;50151;52.030;5.350;2023-07-31T14:21:30;18.60;99.90
63966;DHT22;50151;52.030;5.350;2023-07-31T14:23:57;18.60;99.90
63966;DHT22;50151;52.030;5.350;2023-07-31T14:26:24;18.60;99.90
63966;DHT22;50151;52.030;5.350;2023-07-31T14:28:51;18.60;99.90
63966;DHT22;50151;52.030;5.350;2023-07-31T14:31:17;18.50;99.90
63966;DHT22;50151;52.030;5.350;2023-07-31T14:33:44;18.60;99.90
63966;DHT22;50151;52.030;5.350;2023-07-31T14:36:11;18.70;99.90
63966;DHT22;50151;52.030;5.350;2023-07-31T14:38:37;18.60;99.90
63966;DHT22;50151;52.030;5.350;2023-07-31T14:41:04;18.60;99.90
63966;DHT22;50151;52.030;5.350;2023-07-31T14:43:31;18.60;99.90
63966;DHT22;50151;52.030;5.350;2023-07-31T14:45:58;18.60;99.90
63966;DHT22;50151;52.030;5.350;2023-07-31T14:48:26;18.60;99.90
63966;DHT22;50151;52.030;5.350;2023-07-31T14:50:56;18.60;99.90
63966;DHT22;50151;52.030;5.350;2023-07-31T14:53:22;18.50;99.90
63966;DHT22;50151;52.030;5.350;2023-07-31T14:55:49;18.50;99.90
63966;DHT22;50151;52.030;5.350;2023-07-31T14:58:16;18.50;99.90
63966;DHT22;50151;52.030;5.350;2023-07-31T15:00:44;18.50;99.90
63966;DHT22;50151;52.030;5.350;2023-07-31T15:03:11;18.50;99.90
63966;DHT22;50151;52.030;5.350;2023-07-31T15:05:38;18.50;99.90
63966;DHT22;50151;52.030;5.350;2023-07-31T15:08:04;18.50;99.90
63966;DHT22;50151;52.030;5.350;2023-07-31T15:10:31;18.40;99.90
63966;DHT22;50151;52.030;5.350;2023-07-31T15:12:58;18.40;99.90
63966;DHT22;50151;52.030;5.350;2023-07-31T15:15:25;18.50;99.90
63966;DHT22;50151;52.030;5.350;2023-07-31T15:17:52;18.40;99.90
63966;DHT22;50151;52.030;5.350;2023-07-31T15:20:18;18.40;99.90
63966;DHT22;50151;52.030;5.350;2023-07-31T15:22:45;18.50;99.90
63966;DHT22;50151;52.030;5.350;2023-07-31T15:25:12;18.40;99.90
63966;DHT22;50151;52.030;5.350;2023-07-31T15:27:39;18.40;99.90
63966;DHT22;50151;52.030;5.350;2023-07-31T15:30:07;18.40;99.90
63966;DHT22;50151;52.030;5.350;2023-07-31T15:32:34;18.40;99.90
63966;DHT22;50151;52.030;5.350;2023-07-31T15:35:00;18.50;99.90
63966;DHT22;50151;52.030;5.350;2023-07-31T15:37:27;18.40;99.90
63966;DHT22;50151;52.030;5.350;2023-07-31T15:39:54;18.40;99.90
63966;DHT22;50151;52.030;5.350;2023-07-31T15:42:20;18.40;99.90
63966;DHT22;50151;52.030;5.350;2023-07-31T15:44:47;18.40;99.90
63966;DHT22;50151;52.030;5.350;2023-07-31T15:47:14;18.40;99.90
63966;DHT22;50151;52.030;5.350;2023-07-31T15:49:41;18.40;99.90
63966;DHT22;50151;52.030;5.350;2023-07-31T15:52:07;18.40;99.90
63966;DHT22;50151;52.030;5.350;2023-07-31T15:54:34;18.40;99.90
63966;DHT22;50151;52.030;5.350;2023-07-31T15:57:01;18.40;99.90
63966;DHT22;50151;52.030;5.350;2023-07-31T15:59:27;18.40;99.90
63966;DHT22;50151;52.030;5.350;2023-07-31T16:01:54;18.40;99.90
63966;DHT22;50151;52.030;5.350;2023-07-31T16:04:21;18.30;99.90
63966;DHT22;50151;52.030;5.350;2023-07-31T16:06:48;18.40;99.90
63966;DHT22;50151;52.030;5.350;2023-07-31T16:09:14;18.40;99.90
63966;DHT22;50151;52.030;5.350;2023-07-31T16:11:41;18.40;99.90
63966;DHT22;50151;52.030;5.350;2023-07-31T16:14:09;18.40;99.90
63966;DHT22;50151;52.030;5.350;2023-07-31T16:16:35;18.30;99.90
63966;DHT22;50151;52.030;5.350;2023-07-31T16:19:02;18.30;99.90
63966;DHT22;50151;52.030;5.350;2023-07-31T16:21:30;18.30;99.90
63966;DHT22;50151;52.030;5.350;2023-07-31T16:23:56;18.30;99.90
63966;DHT22;50151;52.030;5.350;2023-07-31T16:26:23;18.20;99.90
63966;DHT22;50151;52.030;5.350;2023-07-31T16:28:50;18.20;99.90
63966;DHT22;50151;52.030;5.350;2023-07-31T16:31:16;18.10;99.90
63966;DHT22;50151;52.030;5.350;2023-07-31T16:33:43;18.20;99.90
63966;DHT22;50151;52.030;5.350;2023-07-31T16:36:10;18.10;99.90
63966;DHT22;50151;52.030;5.350;2023-07-31T16:38:37;18.10;99.90
63966;DHT22;50151;52.030;5.350;2023-07-31T16:41:03;18.10;99.90
63966;DHT22;50151;52.030;5.350;2023-07-31T16:43:31;18.10;99.90
63966;DHT22;50151;52.030;5.350;2023-07-31T16:45:58;18.10;99.90
63966;DHT22;50151;52.030;5.350;2023-07-31T16:48:25;18.10;99.90
63966;DHT22;50151;52.030;5.350;2023-07-31T16:50:52;18.00;99.90
63966;DHT22;50151;52.030;5.350;2023-07-31T16:53:19;18.00;99.90
63966;DHT22;50151;52.030;5.350;2023-07-31T16:55:46;18.00;99.90
63966;DHT22;50151;52.030;5.350;2023-07-31T16:58:12;18.00;99.90
63966;DHT22;50151;52.030;5.350;2023-07-31T17:00:39;17.90;99.90
63966;DHT22;50151;52.030;5.350;2023-07-31T17:03:06;17.90;99.90
63966;DHT22;50151;52.030;5.350;2023-07-31T17:05:33;17.90;99.90
63966;DHT22;50151;52.030;5.350;2023-07-31T17:08:00;17.90;99.90
63966;DHT22;50151;52.030;5.350;2023-07-31T17:10:27;17.90;99.90
63966;DHT22;50151;52.030;5.350;2023-07-31T17:12:54;17.90;99.90
63966;DHT22;50151;52.030;5.350;2023-07-31T17:15:20;17.90;99.90
63966;DHT22;50151;52.030;5.350;2023-07-31T17:17:52;17.90;99.90
63966;DHT22;50151;52.030;5.350;2023-07-31T17:20:22;17.90;99.90
63966;DHT22;50151;52.030;5.350;2023-07-31T17:22:49;17.90;99.90
63966;DHT22;50151;52.030;5.350;2023-07-31T17:25:19;17.90;99.90
63966;DHT22;50151;52.030;5.350;2023-07-31T17:27:46;17.90;99.90
63966;DHT22;50151;52.030;5.350;2023-07-31T17:30:15;17.90;99.90
63966;DHT22;50151;52.030;5.350;2023-07-31T17:32:43;17.90;99.90
63966;DHT22;50151;52.030;5.350;2023-07-31T17:35:10;17.90;99.90
63966;DHT22;50151;52.030;5.350;2023-07-31T17:37:36;17.90;99.90
63966;DHT22;50151;52.030;5.350;2023-07-31T17:40:04;17.90;99.90
63966;DHT22;50151;52.030;5.350;2023-07-31T17:42:30;17.90;99.90
63966;DHT22;50151;52.030;5.350;2023-07-31T17:44:57;17.90;99.90
63966;DHT22;50151;52.030;5.350;2023-07-31T17:47:24;17.90;99.90
63966;DHT22;50151;52.030;5.350;2023-07-31T17:49:51;17.90;99.90
63966;DHT22;50151;52.030;5.350;2023-07-31T17:52:17;17.90;99.90
63966;DHT22;50151;52.030;5.350;2023-07-31T17:54:44;17.90;99.90
63966;DHT22;50151;52.030;5.350;2023-07-31T17:57:11;17.90;99.90
63966;DHT22;50151;52.030;5.350;2023-07-31T17:59:38;17.90;99.90
63966;DHT22;50151;52.030;5.350;2023-07-31T18:02:04;17.90;99.90
63966;DHT22;50151;52.030;5.350;2023-07-31T18:04:31;17.90;99.90
63966;DHT22;50151;52.030;5.350;2023-07-31T18:06:58;17.90;99.90
63966;DHT22;50151;52.030;5.350;2023-07-31T18:09:25;17.90;99.90
63966;DHT22;50151;52.030;5.350;2023-07-31T18:11:52;17.90;99.90
63966;DHT22;50151;52.030;5.350;2023-07-31T18:14:18;17.90;99.90
63966;DHT22;50151;52.030;5.350;2023-07-31T18:16:48;17.90;99.90
63966;DHT22;50151;52.030;5.350;2023-07-31T18:19:15;17.90;99.90
63966;DHT22;50151;52.030;5.350;2023-07-31T18:21:42;17.90;99.90
63966;DHT22;50151;52.030;5.350;2023-07-31T18:24:09;17.90;99.90
63966;DHT22;50151;52.030;5.350;2023-07-31T18:26:36;17.90;99.90
63966;DHT22;50151;52.030;5.350;2023-07-31T18:29:04;17.90;99.90
63966;DHT22;50151;52.030;5.350;2023-07-31T18:31:31;17.90;99.90
63966;DHT22;50151;52.030;5.350;2023-07-31T18:33:57;17.90;99.90
63966;DHT22;50151;52.030;5.350;2023-07-31T18:36:24;17.90;99.90
63966;DHT22;50151;52.030;5.350;2023-07-31T18:38:51;17.90;99.90
63966;DHT22;50151;52.030;5.350;2023-07-31T18:41:18;17.80;99.90
63966;DHT22;50151;52.030;5.350;2023-07-31T18:43:44;17.80;99.90
63966;DHT22;50151;52.030;5.350;2023-07-31T18:46:11;17.90;99.90
63966;DHT22;50151;52.030;5.350;2023-07-31T18:48:38;17.90;99.90
63966;DHT22;50151;52.030;5.350;2023-07-31T18:51:05;17.80;99.90
63966;DHT22;50151;52.030;5.350;2023-07-31T18:53:32;17.80;99.90
63966;DHT22;50151;52.030;5.350;2023-07-31T18:55:58;17.90;99.90
63966;DHT22;50151;52.030;5.350;2023-07-31T18:58:26;17.80;99.90
63966;DHT22;50151;52.030;5.350;2023-07-31T19:00:53;17.80;99.90
63966;DHT22;50151;52.030;5.350;2023-07-31T19:03:19;17.80;99.90
63966;DHT22;50151;52.030;5.350;2023-07-31T19:05:46;17.80;99.90
63966;DHT22;50151;52.030;5.350;2023-07-31T19:08:13;17.80;99.90
63966;DHT22;50151;52.030;5.350;2023-07-31T19:10:40;17.70;99.90
63966;DHT22;50151;52.030;5.350;2023-07-31T19:13:06;17.80;99.90
63966;DHT22;50151;52.030;5.350;2023-07-31T19:15:35;17.70;99.90
63966;DHT22;50151;52.030;5.350;2023-07-31T19:18:02;17.70;99.90
63966;DHT22;50151;52.030;5.350;2023-07-31T19:20:30;17.70;99.90
63966;DHT22;50151;52.030;5.350;2023-07-31T19:22:57;17.60;99.90
63966;DHT22;50151;52.030;5.350;2023-07-31T19:25:25;17.50;99.90
63966;DHT22;50151;52.030;5.350;2023-07-31T19:27:52;17.50;99.90
63966;DHT22;50151;52.030;5.350;2023-07-31T19:30:23;17.40;99.90
63966;DHT22;50151;52.030;5.350;2023-07-31T19:32:50;17.40;99.90
63966;DHT22;50151;52.030;5.350;2023-07-31T19:35:17;17.30;99.90
63966;DHT22;50151;52.030;5.350;2023-07-31T19:37:44;17.30;99.90
63966;DHT22;50151;52.030;5.350;2023-07-31T19:40:11;17.30;99.90
63966;DHT22;50151;52.030;5.350;2023-07-31T19:42:37;17.30;99.90
63966;DHT22;50151;52.030;5.350;2023-07-31T19:45:05;17.20;99.90
63966;DHT22;50151;52.030;5.350;2023-07-31T19:47:32;17.30;99.90
63966;DHT22;50151;52.030;5.350;2023-07-31T19:49:59;17.20;99.90
63966;DHT22;50151;52.030;5.350;2023-07-31T19:52:26;17.20;99.90
63966;DHT22;50151;52.030;5.350;2023-07-31T19:54:53;17.20;99.90
63966;DHT22;50151;52.030;5.350;2023-07-31T19:57:20;17.20;99.90
63966;DHT22;50151;52.030;5.350;2023-07-31T19:59:47;17.20;99.90
63966;DHT22;50151;52.030;5.350;2023-07-31T20:02:13;17.20;99.90
63966;DHT22;50151;52.030;5.350;2023-07-31T20:04:40;17.20;99.90
63966;DHT22;50151;52.030;5.350;2023-07-31T20:07:07;17.30;99.90
63966;DHT22;50151;52.030;5.350;2023-07-31T20:09:34;17.30;99.90
63966;DHT22;50151;52.030;5.350;2023-07-31T20:12:01;17.30;99.90
63966;DHT22;50151;52.030;5.350;2023-07-31T20:14:28;17.30;99.90
63966;DHT22;50151;52.030;5.350;2023-07-31T20:16:54;17.30;99.90
63966;DHT22;50151;52.030;5.350;2023-07-31T20:19:21;17.30;99.90
63966;DHT22;50151;52.030;5.350;2023-07-31T20:21:48;17.30;99.90
63966;DHT22;50151;52.030;5.350;2023-07-31T20:24:14;17.30;99.90
63966;DHT22;50151;52.030;5.350;2023-07-31T20:26:41;17.30;99.90
63966;DHT22;50151;52.030;5.350;2023-07-31T20:29:08;17.30;99.90
63966;DHT22;50151;52.030;5.350;2023-07-31T20:31:35;17.30;99.90
63966;DHT22;50151;52.030;5.350;2023-07-31T20:34:02;17.30;99.90
63966;DHT22;50151;52.030;5.350;2023-07-31T20:36:34;17.30;99.90
63966;DHT22;50151;52.030;5.350;2023-07-31T20:39:02;17.30;99.90
63966;DHT22;50151;52.030;5.350;2023-07-31T20:41:29;17.30;99.90
63966;DHT22;50151;52.030;5.350;2023-07-31T20:43:56;17.30;99.90
63966;DHT22;50151;52.030;5.350;2023-07-31T20:46:23;17.30;99.90
63966;DHT22;50151;52.030;5.350;2023-07-31T20:48:50;17.30;99.90
63966;DHT22;50151;52.030;5.350;2023-07-31T20:51:16;17.20;99.90
63966;DHT22;50151;52.030;5.350;2023-07-31T20:53:43;17.20;99.90
63966;DHT22;50151;52.030;5.350;2023-07-31T20:56:10;17.20;99.90
63966;DHT22;50151;52.030;5.350;2023-07-31T20:58:38;17.20;99.90
63966;DHT22;50151;52.030;5.350;2023-07-31T21:01:04;17.20;99.90
63966;DHT22;50151;52.030;5.350;2023-07-31T21:03:33;17.20;99.90
63966;DHT22;50151;52.030;5.350;2023-07-31T21:06:00;17.10;99.90
63966;DHT22;50151;52.030;5.350;2023-07-31T21:08:27;17.20;99.90
63966;DHT22;50151;52.030;5.350;2023-07-31T21:10:54;17.10;99.90
63966;DHT22;50151;52.030;5.350;2023-07-31T21:13:21;17.10;99.90
63966;DHT22;50151;52.030;5.350;2023-07-31T21:15:48;17.20;99.90
63966;DHT22;50151;52.030;5.350;2023-07-31T21:18:15;17.20;99.90
63966;DHT22;50151;52.030;5.350;2023-07-31T21:20:46;17.20;99.90
63966;DHT22;50151;52.030;5.350;2023-07-31T21:23:14;17.10;99.90
63966;DHT22;50151;52.030;5.350;2023-07-31T21:25:40;17.10;99.90
63966;DHT22;50151;52.030;5.350;2023-07-31T21:28:07;17.10;99.90
63966;DHT22;50151;52.030;5.350;2023-07-31T21:30:34;17.10;99.90
63966;DHT22;50151;52.030;5.350;2023-07-31T21:33:01;17.10;99.90
63966;DHT22;50151;52.030;5.350;2023-07-31T21:35:28;17.00;99.90
63966;DHT22;50151;52.030;5.350;2023-07-31T21:37:55;17.10;99.90
63966;DHT22;50151;52.030;5.350;2023-07-31T21:40:22;17.10;99.90
63966;DHT22;50151;52.030;5.350;2023-07-31T21:42:49;17.00;99.90
63966;DHT22;50151;52.030;5.350;2023-07-31T21:45:16;16.90;99.90
63966;DHT22;50151;52.030;5.350;2023-07-31T21:47:43;17.00;99.90
63966;DHT22;50151;52.030;5.350;2023-07-31T21:50:10;17.00;99.90
63966;DHT22;50151;52.030;5.350;2023-07-31T21:52:37;17.10;99.90
63966;DHT22;50151;52.030;5.350;2023-07-31T21:55:05;17.00;99.90
63966;DHT22;50151;52.030;5.350;2023-07-31T21:57:32;17.00;99.90
63966;DHT22;50151;52.030;5.350;2023-07-31T21:59:59;17.00;99.90
63966;DHT22;50151;52.030;5.350;2023-07-31T22:02:25;17.00;99.90
63966;DHT22;50151;52.030;5.350;2023-07-31T22:04:52;17.00;99.90
63966;DHT22;50151;52.030;5.350;2023-07-31T22:07:19;17.00;99.90
63966;DHT22;50151;52.030;5.350;2023-07-31T22:09:46;16.90;99.90
